Euro Snow — VQGH9 — position and weather

sailwx.info

Track history (hours):
 
Tides and Currents Weather Stations Pressure Air Temp Water Temp Dewpoint Dewpoint Depression Visibility Wind Speed Wind Dir Waves Ship Positions

Euro Snow

Last reported at 2015-Mar-05 00:14 UTC. Time now 2015-Mar-06 07:28 UTC.
Position N 39°13' W 009°43'.

Length 133 m; draft 7.2 m.

Type: Cargo ship. MMSI: 235613000.

Date/timePositionNaut miles runAvg speedWind from/ knotsBaromVisibWave heightAir tempDewpointWater temp
2015-Mar-05 00:14N 39°13' W 009°43'1014.5
2015-Mar-04 23:31N 39°03' W 009°42'1714.9
2015-Mar-04 22:24N 38°46' W 009°41'1012.1
2015-Mar-04 21:33N 38°38' W 009°33'1515.1
2015-Mar-04 20:33N 38°41' W 009°14'6 6.3
2015-Mar-04 19:33N 38°44' W 009°06'0 0.0
2015-Mar-04 18:33N 38°44' W 009°06'0 0.0
2015-Mar-04 17:31N 38°44' W 009°06'0 0.0
2015-Mar-04 16:34N 38°44' W 009°06'0 0.0
2015-Mar-04 15:33N 38°44' W 009°06'0 0.0
2015-Mar-04 14:33N 38°44' W 009°06'0 0.0
2015-Mar-04 13:31N 38°44' W 009°06'0 0.0
2015-Mar-04 12:33N 38°44' W 009°06'0 0.0
2015-Mar-04 11:33N 38°44' W 009°06'0 0.0
2015-Mar-04 10:32N 38°44' W 009°06'0 0.0
2015-Mar-04 09:32N 38°44' W 009°06'0 0.0
2015-Mar-04 08:32N 38°44' W 009°06'5 4.9
2015-Mar-04 07:33N 38°41' W 009°12'9 8.7
2015-Mar-04 06:33N 38°38' W 009°22'1515.4
2015-Mar-04 05:33N 38°39' W 009°41'1615.6
2015-Mar-04 04:33N 38°55' W 009°44'333 7.5
2015-Mar-02 08:14N 43°33' W 005°41'0 0.0
2015-Mar-02 07:33N 43°33' W 005°41'0 0.0
2015-Mar-02 06:33N 43°33' W 005°41'1211.6
2015-Mar-02 05:33N 43°45' W 005°41'1816.3
2015-Mar-02 04:26N 44°03' W 005°42'46511.9
2015-Feb-28 13:20N 50°36' E 000°25'1114.1
2015-Feb-28 12:33N 50°42' E 000°40'1414.3
2015-Feb-28 11:33N 50°50' E 000°59'1413.7
2015-Feb-28 10:33N 50°58' E 001°16'1312.7
2015-Feb-28 09:33N 51°07' E 001°31'1312.6
2015-Feb-28 08:34N 51°15' E 001°47'1413.6
2015-Feb-28 07:34N 51°26' E 001°60'1515.1
2015-Feb-28 06:33N 51°37' E 002°16'4515.1
2015-Feb-28 03:32N 52°02' E 003°17'1616.5
2015-Feb-28 02:33N 52°02' E 003°44'1313.5
2015-Feb-28 01:34N 51°58' E 004°04'2 1.5
2015-Feb-28 00:31N 51°58' E 004°02'0 0.0
2015-Feb-27 23:34N 51°58' E 004°02'0 0.0
2015-Feb-27 22:33N 51°58' E 004°02'0 0.0
2015-Feb-27 21:33N 51°58' E 004°02'0 0.0
2015-Feb-27 20:33N 51°58' E 004°02'0 0.0
2015-Feb-27 19:33N 51°58' E 004°02'0 0.0
2015-Feb-27 18:30N 51°58' E 004°02'0 0.0
2015-Feb-27 17:30N 51°58' E 004°02'0 0.0
2015-Feb-27 16:30N 51°58' E 004°02'0 0.0
2015-Feb-27 15:33N 51°58' E 004°02'0 0.0
2015-Feb-27 14:31N 51°58' E 004°02'0 0.0
2015-Feb-27 13:31N 51°58' E 004°02'0 0.0
2015-Feb-27 12:33N 51°58' E 004°02'0 0.0
2015-Feb-27 11:33N 51°58' E 004°02'0 0.2
2015-Feb-27 10:33N 51°58' E 004°02'8 7.9
2015-Feb-27 09:33N 52°02' E 003°51'1515.4
2015-Feb-27 08:34N 52°17' E 003°47'1616.0
2015-Feb-27 07:33N 52°33' E 003°52'1716.7
2015-Feb-27 06:33N 52°49' E 003°58'1616.2
2015-Feb-27 05:33N 53°03' E 004°12'1716.9
2015-Feb-27 04:33N 53°16' E 004°29'1717.3
2015-Feb-27 03:34N 53°33' E 004°37'1716.9
2015-Feb-27 02:33N 53°49' E 004°47'1716.7
2015-Feb-27 01:34N 54°05' E 004°57'1716.6
2015-Feb-27 00:33N 54°20' E 005°07'8015.9
2015-Feb-26 19:33N 55°27' E 006°22'17713.6
2015-Feb-26 06:32N 57°39' E 009°55'1515.4
2015-Feb-26 05:33N 57°46' E 010°21'1514.6
2015-Feb-26 04:33N 57°47' E 010°48'1717.1
2015-Feb-26 03:34N 57°35' E 011°11'1716.6
2015-Feb-26 02:34N 57°22' E 011°30'1717.2
2015-Feb-26 01:34N 57°06' E 011°41'1817.5
2015-Feb-26 00:34N 56°49' E 011°52'5617.0
2015-Feb-25 21:17N 56°04' E 010°53'1216.8
2015-Feb-25 20:33N 56°05' E 010°31'1010.2
2015-Feb-25 19:33N 56°09' E 010°15'0 0.0
2015-Feb-25 18:30N 56°09' E 010°15'0 0.0
2015-Feb-25 17:33N 56°09' E 010°15'0 0.0
2015-Feb-25 16:33N 56°09' E 010°15'0 0.0
2015-Feb-25 15:33N 56°09' E 010°15'0 0.2
2015-Feb-25 14:33N 56°10' E 010°15'4513.1
2015-Feb-25 11:05N 56°29' E 011°29'815.9
2015-Feb-25 10:33N 56°35' E 011°38'1514.7
2015-Feb-25 09:34N 56°49' E 011°49'1615.5
2015-Feb-25 08:33N 57°04' E 011°40'1615.6
2015-Feb-25 07:33N 57°19' E 011°39'1515.5
2015-Feb-25 06:33N 57°35' E 011°40'9 9.0
2015-Feb-25 05:33N 57°41' E 011°51'0 0.0
2015-Feb-25 04:33N 57°41' E 011°51'0 0.0
2015-Feb-25 03:33N 57°41' E 011°51'0 0.0
2015-Feb-25 02:33N 57°41' E 011°51'0 0.0
2015-Feb-25 01:33N 57°41' E 011°51'0 0.0
2015-Feb-25 00:33N 57°41' E 011°51'0 0.0
2015-Feb-24 23:33N 57°41' E 011°51'0 0.0
2015-Feb-24 22:31N 57°41' E 011°51'0 0.0
2015-Feb-24 21:33N 57°41' E 011°51'0 0.0
2015-Feb-24 20:33N 57°41' E 011°51'0 0.0
2015-Feb-24 19:33N 57°41' E 011°51'0 0.0
2015-Feb-24 18:33N 57°41' E 011°51'0 0.0
2015-Feb-24 17:33N 57°41' E 011°51'0 0.0
2015-Feb-24 16:33N 57°41' E 011°51'0 0.0
2015-Feb-24 15:33N 57°41' E 011°51'0 0.0
2015-Feb-24 14:33N 57°41' E 011°51'0 0.0
2015-Feb-24 13:33N 57°41' E 011°51'0 0.0
2015-Feb-24 12:33N 57°41' E 011°51'0 0.0
2015-Feb-24 11:33N 57°41' E 011°51'0 0.0
2015-Feb-24 10:33N 57°41' E 011°51'0 0.0
2015-Feb-24 09:33N 57°41' E 011°51'0 0.0
2015-Feb-24 08:33N 57°41' E 011°51'0 0.0
2015-Feb-24 07:33N 57°41' E 011°51'2 2.5
2015-Feb-24 06:33N 57°40' E 011°47'1313.5
2015-Feb-24 05:34N 57°39' E 011°22'1615.8
2015-Feb-24 04:33N 57°45' E 010°54'39916.0
2015-Feb-23 03:33N 54°58' W 000°01'1616.0
2015-Feb-23 02:33N 54°52' W 000°26'1616.1
2015-Feb-23 01:33N 54°45' W 000°51'  
Track history (hours):
 
Tides and Currents Weather Stations Pressure Air Temp Water Temp Dewpoint Dewpoint Depression Visibility Wind Speed Wind Dir Waves Ship Positions

Euro Snow

Last reported at 2015-Mar-05 00:14 UTC. Time now 2015-Mar-06 07:28 UTC.
Position N 39°13' W 009°43'.

Length 133 m; draft 7.2 m.

Type: Cargo ship. MMSI: 235613000.

Date/timePositionNaut miles runAvg speedWind from/ knotsBaromVisibWave heightAir tempDewpointWater temp
2015-Mar-05 00:14N 39°13' W 009°43'1014.5
2015-Mar-04 23:31N 39°03' W 009°42'1714.9
2015-Mar-04 22:24N 38°46' W 009°41'1012.1
2015-Mar-04 21:33N 38°38' W 009°33'1515.1
2015-Mar-04 20:33N 38°41' W 009°14'6 6.3
2015-Mar-04 19:33N 38°44' W 009°06'0 0.0
2015-Mar-04 18:33N 38°44' W 009°06'0 0.0
2015-Mar-04 17:31N 38°44' W 009°06'0 0.0
2015-Mar-04 16:34N 38°44' W 009°06'0 0.0
2015-Mar-04 15:33N 38°44' W 009°06'0 0.0
2015-Mar-04 14:33N 38°44' W 009°06'0 0.0
2015-Mar-04 13:31N 38°44' W 009°06'0 0.0
2015-Mar-04 12:33N 38°44' W 009°06'0 0.0
2015-Mar-04 11:33N 38°44' W 009°06'0 0.0
2015-Mar-04 10:32N 38°44' W 009°06'0 0.0
2015-Mar-04 09:32N 38°44' W 009°06'0 0.0
2015-Mar-04 08:32N 38°44' W 009°06'5 4.9
2015-Mar-04 07:33N 38°41' W 009°12'9 8.7
2015-Mar-04 06:33N 38°38' W 009°22'1515.4
2015-Mar-04 05:33N 38°39' W 009°41'1615.6
2015-Mar-04 04:33N 38°55' W 009°44'333 7.5
2015-Mar-02 08:14N 43°33' W 005°41'0 0.0
2015-Mar-02 07:33N 43°33' W 005°41'0 0.0
2015-Mar-02 06:33N 43°33' W 005°41'1211.6
2015-Mar-02 05:33N 43°45' W 005°41'1816.3
2015-Mar-02 04:26N 44°03' W 005°42'46511.9
2015-Feb-28 13:20N 50°36' E 000°25'1114.1
2015-Feb-28 12:33N 50°42' E 000°40'1414.3
2015-Feb-28 11:33N 50°50' E 000°59'1413.7
2015-Feb-28 10:33N 50°58' E 001°16'1312.7
2015-Feb-28 09:33N 51°07' E 001°31'1312.6
2015-Feb-28 08:34N 51°15' E 001°47'1413.6
2015-Feb-28 07:34N 51°26' E 001°60'1515.1
2015-Feb-28 06:33N 51°37' E 002°16'4515.1
2015-Feb-28 03:32N 52°02' E 003°17'1616.5
2015-Feb-28 02:33N 52°02' E 003°44'1313.5
2015-Feb-28 01:34N 51°58' E 004°04'2 1.5
2015-Feb-28 00:31N 51°58' E 004°02'0 0.0
2015-Feb-27 23:34N 51°58' E 004°02'0 0.0
2015-Feb-27 22:33N 51°58' E 004°02'0 0.0
2015-Feb-27 21:33N 51°58' E 004°02'0 0.0
2015-Feb-27 20:33N 51°58' E 004°02'0 0.0
2015-Feb-27 19:33N 51°58' E 004°02'0 0.0
2015-Feb-27 18:30N 51°58' E 004°02'0 0.0
2015-Feb-27 17:30N 51°58' E 004°02'0 0.0
2015-Feb-27 16:30N 51°58' E 004°02'0 0.0
2015-Feb-27 15:33N 51°58' E 004°02'0 0.0
2015-Feb-27 14:31N 51°58' E 004°02'0 0.0
2015-Feb-27 13:31N 51°58' E 004°02'0 0.0
2015-Feb-27 12:33N 51°58' E 004°02'0 0.0
2015-Feb-27 11:33N 51°58' E 004°02'0 0.2
2015-Feb-27 10:33N 51°58' E 004°02'8 7.9
2015-Feb-27 09:33N 52°02' E 003°51'1515.4
2015-Feb-27 08:34N 52°17' E 003°47'1616.0
2015-Feb-27 07:33N 52°33' E 003°52'1716.7
2015-Feb-27 06:33N 52°49' E 003°58'1616.2
2015-Feb-27 05:33N 53°03' E 004°12'1716.9
2015-Feb-27 04:33N 53°16' E 004°29'1717.3
2015-Feb-27 03:34N 53°33' E 004°37'1716.9
2015-Feb-27 02:33N 53°49' E 004°47'1716.7
2015-Feb-27 01:34N 54°05' E 004°57'1716.6
2015-Feb-27 00:33N 54°20' E 005°07'8015.9
2015-Feb-26 19:33N 55°27' E 006°22'17713.6
2015-Feb-26 06:32N 57°39' E 009°55'1515.4
2015-Feb-26 05:33N 57°46' E 010°21'1514.6
2015-Feb-26 04:33N 57°47' E 010°48'1717.1
2015-Feb-26 03:34N 57°35' E 011°11'1716.6
2015-Feb-26 02:34N 57°22' E 011°30'1717.2
2015-Feb-26 01:34N 57°06' E 011°41'1817.5
2015-Feb-26 00:34N 56°49' E 011°52'5617.0
2015-Feb-25 21:17N 56°04' E 010°53'1216.8
2015-Feb-25 20:33N 56°05' E 010°31'1010.2
2015-Feb-25 19:33N 56°09' E 010°15'0 0.0
2015-Feb-25 18:30N 56°09' E 010°15'0 0.0
2015-Feb-25 17:33N 56°09' E 010°15'0 0.0
2015-Feb-25 16:33N 56°09' E 010°15'0 0.0
2015-Feb-25 15:33N 56°09' E 010°15'0 0.2
2015-Feb-25 14:33N 56°10' E 010°15'4513.1
2015-Feb-25 11:05N 56°29' E 011°29'815.9
2015-Feb-25 10:33N 56°35' E 011°38'1514.7
2015-Feb-25 09:34N 56°49' E 011°49'1615.5
2015-Feb-25 08:33N 57°04' E 011°40'1615.6
2015-Feb-25 07:33N 57°19' E 011°39'1515.5
2015-Feb-25 06:33N 57°35' E 011°40'9 9.0
2015-Feb-25 05:33N 57°41' E 011°51'0 0.0
2015-Feb-25 04:33N 57°41' E 011°51'0 0.0
2015-Feb-25 03:33N 57°41' E 011°51'0 0.0
2015-Feb-25 02:33N 57°41' E 011°51'0 0.0
2015-Feb-25 01:33N 57°41' E 011°51'0 0.0
2015-Feb-25 00:33N 57°41' E 011°51'0 0.0
2015-Feb-24 23:33N 57°41' E 011°51'0 0.0
2015-Feb-24 22:31N 57°41' E 011°51'0 0.0
2015-Feb-24 21:33N 57°41' E 011°51'0 0.0
2015-Feb-24 20:33N 57°41' E 011°51'0 0.0
2015-Feb-24 19:33N 57°41' E 011°51'0 0.0
2015-Feb-24 18:33N 57°41' E 011°51'0 0.0
2015-Feb-24 17:33N 57°41' E 011°51'0 0.0
2015-Feb-24 16:33N 57°41' E 011°51'0 0.0
2015-Feb-24 15:33N 57°41' E 011°51'0 0.0
2015-Feb-24 14:33N 57°41' E 011°51'0 0.0
2015-Feb-24 13:33N 57°41' E 011°51'0 0.0
2015-Feb-24 12:33N 57°41' E 011°51'0 0.0
2015-Feb-24 11:33N 57°41' E 011°51'0 0.0
2015-Feb-24 10:33N 57°41' E 011°51'0 0.0
2015-Feb-24 09:33N 57°41' E 011°51'0 0.0
2015-Feb-24 08:33N 57°41' E 011°51'0 0.0
2015-Feb-24 07:33N 57°41' E 011°51'2 2.5
2015-Feb-24 06:33N 57°40' E 011°47'1313.5
2015-Feb-24 05:34N 57°39' E 011°22'1615.8
2015-Feb-24 04:33N 57°45' E 010°54'39916.0
2015-Feb-23 03:33N 54°58' W 000°01'1616.0
2015-Feb-23 02:33N 54°52' W 000°26'1616.1
2015-Feb-23 01:33N 54°45' W 000°51'  

Dump ship's entire track history